createdAt,value
2022-10-02T00:00:47.750Z,99627.50
2022-10-02T00:22:34.309Z,99661.44
2022-10-02T00:25:40.188Z,99661.44
2022-10-02T00:28:48.952Z,99665.53
2022-10-02T00:31:58.176Z,99666.69
2022-10-02T00:35:00.606Z,99668.22
2022-10-02T00:38:03.335Z,99673.66
2022-10-02T00:41:09.000Z,99673.25
2022-10-02T00:44:26.768Z,99686.72
2022-10-02T00:47:39.481Z,99682.44
2022-10-02T00:51:02.455Z,99690.22
2022-10-02T00:54:23.936Z,99694.13
2022-10-02T00:57:45.675Z,99700.28
2022-10-02T01:00:49.779Z,99699.34
2022-10-02T01:03:56.677Z,99697.72
2022-10-02T01:06:59.241Z,99701.97
2022-10-02T01:10:01.906Z,99693.91
2022-10-02T01:13:04.985Z,99704.75
2022-10-02T01:16:09.664Z,99705.56
2022-10-02T01:19:31.823Z,99706.97
2022-10-02T01:22:36.110Z,99717.19
2022-10-02T01:25:38.796Z,99708.25
2022-10-02T01:28:41.561Z,99707.12
2022-10-02T01:31:44.006Z,99699.31
2022-10-02T01:34:46.977Z,99709.78
2022-10-02T01:37:49.687Z,99712.91
2022-10-02T01:40:52.597Z,99722.59
2022-10-02T01:43:56.202Z,99717.56
2022-10-02T01:47:10.817Z,99724.22
2022-10-02T01:50:18.105Z,99726.22
2022-10-02T01:53:35.760Z,99728.47
2022-10-02T01:56:47.434Z,99737.09
2022-10-02T01:59:49.988Z,99741.34
2022-10-02T02:02:52.915Z,99730.84
2022-10-02T02:06:03.746Z,99731.28
2022-10-02T02:09:09.166Z,99741.81
2022-10-02T02:12:13.122Z,99745.28
2022-10-02T02:15:34.361Z,99747.34
2022-10-02T02:18:48.215Z,99758.19
2022-10-02T02:21:54.684Z,99755.13
2022-10-02T02:25:02.947Z,99760.56
2022-10-02T02:28:06.892Z,99762.53
2022-10-02T02:31:10.374Z,99769.06
2022-10-02T02:34:13.809Z,99776.78
2022-10-02T02:37:19.265Z,99779.91
2022-10-02T02:40:24.046Z,99778.84
2022-10-02T02:43:31.796Z,99782.31
2022-10-02T02:46:56.848Z,99785.88
2022-10-02T02:50:01.276Z,99783.09
2022-10-02T02:53:06.145Z,99799.44
2022-10-02T02:56:10.354Z,99799.34
2022-10-02T02:59:14.667Z,99798.56
2022-10-02T03:02:17.493Z,99804.34
2022-10-02T03:05:22.065Z,99821.00
2022-10-02T03:08:27.040Z,99820.28
2022-10-02T03:11:33.225Z,99821.00
2022-10-02T03:14:40.078Z,99821.38
2022-10-02T03:17:49.831Z,99831.50
2022-10-02T03:20:55.280Z,99839.28
2022-10-02T03:24:16.248Z,99841.59
2022-10-02T03:27:31.387Z,99850.19
2022-10-02T03:30:37.538Z,99853.66
2022-10-02T03:33:40.283Z,99860.16
2022-10-02T03:36:42.831Z,99868.03
2022-10-02T03:39:45.654Z,99868.00
2022-10-02T03:42:48.110Z,99863.81
2022-10-02T03:45:51.835Z,99872.37
2022-10-02T03:48:56.690Z,99878.09
2022-10-02T03:51:59.429Z,99886.66
2022-10-02T03:55:04.249Z,99888.56
2022-10-02T03:58:10.899Z,99890.91
2022-10-02T04:01:32.327Z,99893.91
2022-10-02T04:04:39.962Z,99894.72
2022-10-02T04:07:42.711Z,99888.06
2022-10-02T04:10:45.489Z,99886.87
2022-10-02T04:13:49.105Z,99890.00
2022-10-02T04:17:03.367Z,99888.84
2022-10-02T04:20:17.185Z,99896.94
2022-10-02T04:23:21.877Z,99904.66
2022-10-02T04:26:25.811Z,99895.44
2022-10-02T04:29:32.436Z,99904.25
2022-10-02T04:32:36.086Z,99905.00
2022-10-02T04:35:51.166Z,99899.88
2022-10-02T04:39:02.577Z,99897.44
2022-10-02T04:42:09.627Z,99910.56
2022-10-02T04:45:28.018Z,99913.97
2022-10-02T04:48:34.428Z,99922.41
2022-10-02T04:51:41.423Z,99921.28
2022-10-02T04:55:15.955Z,99936.72
2022-10-02T04:58:25.064Z,99920.53
2022-10-02T05:01:43.331Z,99929.78
2022-10-02T05:04:53.221Z,99935.94
2022-10-02T05:08:17.915Z,99932.19
2022-10-02T05:11:23.490Z,99925.97
2022-10-02T05:14:35.405Z,99929.94
2022-10-02T05:17:53.190Z,99924.44
2022-10-02T05:20:58.948Z,99916.41
2022-10-02T05:24:08.521Z,99914.78
2022-10-02T05:27:17.427Z,99925.31
2022-10-02T05:30:20.046Z,99926.34
2022-10-02T05:33:31.830Z,99933.03
2022-10-02T05:36:46.848Z,99931.50
2022-10-02T05:39:57.240Z,99937.38
2022-10-02T05:42:59.695Z,99937.78
2022-10-02T05:46:04.100Z,99948.75
2022-10-02T05:49:07.665Z,99938.00
2022-10-02T05:52:14.246Z,99932.87
2022-10-02T05:55:17.652Z,99932.25
2022-10-02T05:58:27.777Z,99937.59
2022-10-02T06:01:31.238Z,99936.97
2022-10-02T06:04:34.495Z,99943.22
2022-10-02T06:07:37.616Z,99942.44
2022-10-02T06:10:51.115Z,99945.16
2022-10-02T06:13:55.323Z,99968.19
2022-10-02T06:16:59.731Z,99972.13
2022-10-02T06:20:09.415Z,99971.50
2022-10-02T06:23:13.553Z,99975.78
2022-10-02T06:26:25.212Z,99985.47
2022-10-02T06:29:29.609Z,99990.28
2022-10-02T06:32:39.634Z,99992.19
2022-10-02T06:35:45.536Z,100001.53
2022-10-02T06:39:06.810Z,100003.22
2022-10-02T06:42:18.140Z,99998.56
2022-10-02T06:45:23.858Z,100006.59
2022-10-02T07:01:25.533Z,100030.47
2022-10-02T07:04:52.359Z,100041.81
2022-10-02T07:08:03.192Z,100045.38
2022-10-02T07:11:08.891Z,100038.06
2022-10-02T07:14:41.216Z,100044.34
2022-10-02T07:17:44.146Z,100034.25
2022-10-02T07:20:55.884Z,100029.28
2022-10-02T07:24:22.225Z,100047.22
2022-10-02T07:27:44.853Z,100060.03
2022-10-02T07:30:54.678Z,100058.53
2022-10-02T07:38:06.185Z,100071.81
2022-10-02T07:41:30.443Z,100078.47
2022-10-02T07:44:44.807Z,100090.88
2022-10-02T07:48:04.222Z,100089.41
2022-10-02T07:51:37.927Z,100092.13
2022-10-02T07:54:41.214Z,100101.09
2022-10-02T07:57:49.706Z,100098.00
2022-10-02T08:00:54.144Z,100099.97
2022-10-02T08:04:03.875Z,100091.41
2022-10-02T08:07:06.860Z,100103.09
2022-10-02T08:10:11.495Z,100100.34
2022-10-02T08:16:46.883Z,100100.78
2022-10-02T08:19:50.191Z,100095.69
2022-10-02T08:23:13.331Z,100102.66
2022-10-02T08:26:23.388Z,100097.66
2022-10-02T08:29:28.231Z,100101.16
2022-10-02T08:32:34.678Z,100098.78
2022-10-02T08:36:00.603Z,100114.03
2022-10-02T08:39:03.427Z,100098.03
2022-10-02T08:42:20.373Z,100105.03
2022-10-02T08:45:41.537Z,100115.19
2022-10-02T08:48:55.050Z,100115.16
2022-10-02T08:52:16.323Z,100114.00
2022-10-02T08:55:31.383Z,100110.09
2022-10-02T08:58:53.453Z,100121.38
2022-10-02T09:02:02.439Z,100109.28
2022-10-02T09:05:23.617Z,100110.84
2022-10-02T09:08:29.673Z,100101.81
2022-10-02T09:11:48.350Z,100110.44
2022-10-02T09:15:10.535Z,100115.50
2022-10-02T09:21:52.036Z,100117.75
2022-10-02T09:25:00.507Z,100107.44
2022-10-02T09:28:13.081Z,100084.34
2022-10-02T09:31:16.289Z,100091.28
2022-10-02T09:34:38.578Z,100080.44
2022-10-02T09:37:44.409Z,100090.16
2022-10-02T09:40:50.226Z,100092.09
2022-10-02T09:43:52.823Z,100085.31
2022-10-02T09:46:55.873Z,100083.12
2022-10-02T09:50:03.221Z,100097.25
2022-10-02T09:53:37.418Z,100083.00
2022-10-02T09:57:00.531Z,100090.56
2022-10-02T10:00:06.151Z,100081.03
2022-10-02T10:03:14.434Z,100078.34
2022-10-02T10:06:20.370Z,100075.63
2022-10-02T10:09:22.818Z,100083.72
2022-10-02T10:12:43.756Z,100075.06
2022-10-02T10:15:52.932Z,100109.84
2022-10-02T10:19:32.500Z,100076.19
2022-10-02T10:22:57.794Z,100076.91
2022-10-02T10:26:09.910Z,100077.78
2022-10-02T10:29:31.996Z,100068.16
2022-10-02T10:32:53.426Z,100061.78
2022-10-02T10:36:06.250Z,100060.38
2022-10-02T10:39:19.429Z,100063.81
2022-10-02T10:42:24.309Z,100058.97
2022-10-02T10:45:40.391Z,100053.53
2022-10-02T10:48:49.353Z,100046.72
2022-10-02T10:52:02.463Z,100056.88
2022-10-02T10:55:12.497Z,100048.59
2022-10-02T10:58:21.400Z,100050.13
2022-10-02T11:01:24.077Z,100041.19
2022-10-02T11:04:41.381Z,100053.63
2022-10-02T11:08:06.012Z,100052.62
2022-10-02T11:11:13.033Z,100061.56
2022-10-02T11:14:41.039Z,100046.91
2022-10-02T11:17:54.206Z,100053.19
2022-10-02T11:21:16.927Z,100035.59
2022-10-02T11:24:29.219Z,100042.03
2022-10-02T11:27:57.918Z,100037.72
2022-10-02T11:31:06.115Z,100031.31
2022-10-02T11:34:08.759Z,100038.47
2022-10-02T11:37:34.135Z,100037.84
2022-10-02T11:40:39.546Z,100030.44
2022-10-02T11:43:48.517Z,100042.12
2022-10-02T11:46:57.860Z,100032.06
2022-10-02T11:50:19.349Z,100028.94
2022-10-02T11:53:29.445Z,100030.31
2022-10-02T11:57:01.862Z,100030.31
2022-10-02T12:00:16.169Z,100029.53
2022-10-02T12:03:31.499Z,100024.19
2022-10-02T12:06:42.323Z,100027.63
2022-10-02T12:10:05.459Z,100026.81
2022-10-02T12:13:26.187Z,100028.47
2022-10-02T12:16:52.023Z,100009.53
2022-10-02T12:20:19.361Z,100008.94
2022-10-02T12:24:00.050Z,100004.44
2022-10-02T12:27:10.987Z,99992.25
2022-10-02T12:30:22.654Z,100002.66
2022-10-02T12:33:34.549Z,100012.75
2022-10-02T12:36:40.910Z,100004.03
2022-10-02T12:40:02.223Z,100003.06
2022-10-02T12:43:48.468Z,99998.06
2022-10-02T12:46:51.493Z,99990.81
2022-10-02T12:50:03.057Z,99991.75
2022-10-02T12:53:08.618Z,100000.56
2022-10-02T12:56:24.222Z,99987.81
2022-10-02T12:59:50.928Z,99987.44
2022-10-02T13:03:09.231Z,99982.75
2022-10-02T13:06:31.700Z,99990.00
2022-10-02T13:09:34.738Z,99986.78
2022-10-02T13:12:56.447Z,99981.66
2022-10-02T13:16:05.155Z,99964.44
2022-10-02T13:19:19.443Z,99959.12
2022-10-02T13:22:37.305Z,99963.78
2022-10-02T13:26:04.605Z,99967.81
2022-10-02T13:33:08.543Z,99955.28
2022-10-02T13:36:36.251Z,99959.56
2022-10-02T13:39:38.855Z,99951.47
2022-10-02T13:46:28.109Z,99936.97
2022-10-02T14:01:59.414Z,99923.13
2022-10-02T14:09:07.452Z,99932.06
2022-10-02T14:12:29.100Z,99933.56
2022-10-02T14:15:37.749Z,99927.03
2022-10-02T14:19:01.195Z,99932.31
2022-10-02T14:22:29.683Z,99938.06
2022-10-02T14:25:33.656Z,99924.13
2022-10-02T14:28:39.468Z,99923.81
2022-10-02T14:31:49.757Z,99915.78
2022-10-02T14:34:59.194Z,99916.75
2022-10-02T14:38:11.802Z,99909.44
2022-10-02T14:41:21.841Z,99904.38
2022-10-02T14:44:45.383Z,99905.16
2022-10-02T14:48:07.310Z,99887.63
2022-10-02T14:51:34.076Z,99893.00
2022-10-02T14:54:57.318Z,99894.22
2022-10-02T14:58:06.515Z,99891.59
2022-10-02T15:01:12.081Z,99883.69
2022-10-02T15:08:21.725Z,99875.16
2022-10-02T15:11:04.835Z,99875.53
2022-10-02T15:11:40.312Z,99870.16
2022-10-02T15:14:43.668Z,99860.72
2022-10-02T15:18:08.128Z,99865.38
2022-10-02T15:21:26.966Z,99857.59
2022-10-02T15:24:34.035Z,99856.44
2022-10-02T15:28:24.121Z,99854.88
2022-10-02T15:32:07.739Z,99854.97
2022-10-02T15:35:39.293Z,99847.84
2022-10-02T15:38:53.941Z,99852.53
2022-10-02T15:43:01.168Z,99853.69
2022-10-02T15:50:54.337Z,99847.16
2022-10-02T15:54:19.132Z,99863.59
2022-10-02T16:01:28.232Z,99863.91
2022-10-02T16:04:55.676Z,99857.31
2022-10-02T16:08:12.949Z,99840.63
2022-10-02T16:11:31.534Z,99829.66
2022-10-02T16:14:53.272Z,99830.16
2022-10-02T16:18:19.993Z,99835.66
2022-10-02T16:21:35.644Z,99844.56
2022-10-02T16:24:44.319Z,99847.00
2022-10-02T16:28:05.635Z,99850.50
2022-10-02T16:31:37.217Z,99846.22
2022-10-02T16:38:51.499Z,99838.09
2022-10-02T16:42:02.458Z,99840.44
2022-10-02T16:45:29.519Z,99835.38
2022-10-02T16:48:51.339Z,99837.34
2022-10-02T16:51:56.262Z,99842.06
2022-10-02T16:55:24.559Z,99844.78
2022-10-02T16:58:48.536Z,99845.16
2022-10-02T17:02:18.058Z,99840.87
2022-10-02T17:09:37.274Z,99834.63
2022-10-02T17:13:08.853Z,99837.38
2022-10-02T17:17:03.434Z,99833.47
2022-10-02T17:20:52.652Z,99839.72
2022-10-02T17:24:17.491Z,99827.22
2022-10-02T17:27:45.559Z,99833.09
2022-10-02T17:31:09.449Z,99831.53
2022-10-02T17:34:45.176Z,99842.47
2022-10-02T17:37:55.137Z,99838.16
2022-10-02T17:40:57.792Z,99837.75
2022-10-02T17:48:07.550Z,99848.69
2022-10-02T17:55:49.382Z,99846.75
2022-10-02T17:59:17.666Z,99841.28
2022-10-02T18:10:00.753Z,99830.78
2022-10-02T18:13:32.938Z,99843.66
2022-10-02T18:16:38.120Z,99835.84
2022-10-02T18:20:09.216Z,99833.91
2022-10-02T18:27:01.799Z,99845.19
2022-10-02T18:30:19.153Z,99849.09
2022-10-02T18:33:41.019Z,99865.06
2022-10-02T18:37:11.811Z,99856.09
2022-10-02T18:40:23.021Z,99846.72
2022-10-02T18:43:55.024Z,99846.78
2022-10-02T18:46:59.488Z,99847.94
2022-10-02T18:50:10.985Z,99854.94
2022-10-02T18:53:23.388Z,99851.03
2022-10-02T18:56:56.438Z,99844.81
2022-10-02T19:00:07.688Z,99849.88
2022-10-02T19:03:19.216Z,99854.13
2022-10-02T19:06:36.321Z,99851.44
2022-10-02T19:09:41.578Z,99850.66
2022-10-02T19:12:44.770Z,99848.31
2022-10-02T19:15:52.827Z,99853.38
2022-10-02T19:19:14.107Z,99853.75
2022-10-02T19:22:37.615Z,99847.94
2022-10-02T19:25:46.642Z,99847.91
2022-10-02T19:29:34.186Z,99841.28
2022-10-02T19:32:43.164Z,99842.09
2022-10-02T19:35:46.081Z,99845.97
2022-10-02T19:39:08.038Z,99839.38
2022-10-02T19:42:20.948Z,99845.22
2022-10-02T19:45:26.909Z,99847.53
2022-10-02T19:48:29.999Z,99849.88
2022-10-02T19:51:43.013Z,99833.94
2022-10-02T19:54:47.160Z,99833.53
2022-10-02T19:57:50.570Z,99821.84
2022-10-02T20:00:53.929Z,99827.31
2022-10-02T20:03:58.019Z,99824.56
2022-10-02T20:07:02.353Z,99817.56
2022-10-02T20:10:16.385Z,99810.16
2022-10-02T20:13:48.339Z,99808.59
2022-10-02T20:17:09.161Z,99811.75
2022-10-02T20:20:13.574Z,99820.69
2022-10-02T20:23:17.698Z,99827.72
2022-10-02T20:26:24.664Z,99821.47
2022-10-02T20:29:29.137Z,99817.56
2022-10-02T20:32:32.415Z,99823.03
2022-10-02T20:35:37.551Z,99821.09
2022-10-02T20:38:43.148Z,99815.66
2022-10-02T20:41:58.908Z,99814.47
2022-10-02T20:45:01.892Z,99810.56
2022-10-02T20:48:13.132Z,99813.66
2022-10-02T20:51:16.267Z,99797.72
2022-10-02T20:54:27.668Z,99805.50
2022-10-02T20:57:49.630Z,99811.75
2022-10-02T21:00:59.745Z,99817.94
2022-10-02T21:07:20.769Z,99820.31
2022-10-02T21:10:29.450Z,99827.31
2022-10-02T21:13:38.499Z,99823.03
2022-10-02T21:16:50.437Z,99812.53
2022-10-02T21:20:02.310Z,99812.47
2022-10-02T21:23:14.852Z,99825.72
2022-10-02T21:26:33.139Z,99820.28
2022-10-02T21:29:55.994Z,99824.16
2022-10-02T21:33:19.162Z,99811.69
2022-10-02T21:36:23.677Z,99806.28
2022-10-02T21:39:56.586Z,99805.47
2022-10-02T21:43:24.124Z,99812.88
2022-10-02T21:46:33.012Z,99809.34
2022-10-02T21:49:35.884Z,99805.84
2022-10-02T21:52:38.714Z,99801.19
2022-10-02T21:56:05.497Z,99806.62
2022-10-02T21:59:23.839Z,99802.34
2022-10-02T22:02:56.420Z,99805.47
2022-10-02T22:25:35.812Z,99796.53
2022-10-02T22:59:22.263Z,99783.28
2022-10-02T23:06:43.256Z,99773.56
2022-10-02T23:10:09.231Z,99781.34
2022-10-02T23:13:38.490Z,99767.66
2022-10-02T23:16:53.273Z,99772.75
2022-10-02T23:20:05.519Z,99774.69
2022-10-02T23:23:43.676Z,99777.00
2022-10-02T23:26:47.259Z,99769.25
2022-10-02T23:29:56.758Z,99785.56
2022-10-02T23:32:59.600Z,99774.69
2022-10-02T23:36:24.537Z,99766.94
2022-10-02T23:39:47.141Z,99767.28
2022-10-02T23:42:55.867Z,99758.69
2022-10-02T23:46:01.176Z,99767.63
2022-10-02T23:49:09.504Z,99772.59
2022-10-02T23:52:35.027Z,99777.63
2022-10-02T23:55:47.098Z,99771.00
2022-10-02T23:59:21.865Z,99769.78
